createdAt,value
2019-04-10T00:01:01.384Z,-1.30
2019-04-10T00:03:34.437Z,-1.30
2019-04-10T00:06:02.594Z,-1.30
2019-04-10T00:08:32.480Z,-1.30
2019-04-10T00:11:02.689Z,-1.30
2019-04-10T00:13:32.345Z,-1.40
2019-04-10T00:16:01.814Z,-1.40
2019-04-10T00:18:31.625Z,-1.40
2019-04-10T00:21:01.038Z,-1.40
2019-04-10T00:23:31.147Z,-1.50
2019-04-10T00:26:01.459Z,-1.40
2019-04-10T00:28:31.745Z,-1.50
2019-04-10T00:31:01.940Z,-1.40
2019-04-10T00:33:32.496Z,-1.50
2019-04-10T00:36:02.232Z,-1.50
2019-04-10T00:38:31.693Z,-1.50
2019-04-10T00:41:01.095Z,-1.40
2019-04-10T00:43:30.856Z,-1.40
2019-04-10T00:46:00.342Z,-1.40
2019-04-10T00:48:30.076Z,-1.40
2019-04-10T00:50:59.878Z,-1.40
2019-04-10T00:53:29.549Z,-1.50
2019-04-10T00:55:59.907Z,-1.50
2019-04-10T00:58:30.160Z,-1.50
2019-04-10T01:00:59.694Z,-1.60
2019-04-10T01:03:45.155Z,-1.60
2019-04-10T01:06:15.911Z,-1.60
2019-04-10T01:08:45.744Z,-1.60
2019-04-10T01:11:15.267Z,-1.60
2019-04-10T01:13:45.420Z,-1.50
2019-04-10T01:16:16.486Z,-1.50
2019-04-10T01:18:47.791Z,-1.40
2019-04-10T01:21:18.003Z,-1.50
2019-04-10T01:23:48.932Z,-1.50
2019-04-10T01:26:19.128Z,-1.50
2019-04-10T01:28:49.215Z,-1.60
2019-04-10T01:31:19.835Z,-1.60
2019-04-10T01:33:49.450Z,-1.70
2019-04-10T01:36:18.835Z,-1.70
2019-04-10T01:38:49.436Z,-1.80
2019-04-10T01:41:19.461Z,-1.80
2019-04-10T01:43:48.982Z,-1.80
2019-04-10T01:46:18.475Z,-1.80
2019-04-10T01:48:49.122Z,-1.90
2019-04-10T01:51:19.222Z,-1.90
2019-04-10T01:53:48.926Z,-2.00
2019-04-10T01:56:24.799Z,-2.10
2019-04-10T01:58:49.613Z,-2.20
2019-04-10T02:01:38.818Z,-2.20
2019-04-10T02:04:08.914Z,-2.20
2019-04-10T02:06:38.625Z,-2.30
2019-04-10T02:09:27.635Z,-2.30
2019-04-10T02:11:58.485Z,-2.30
2019-04-10T02:14:28.466Z,-2.30
2019-04-10T02:16:58.976Z,-2.30
2019-04-10T02:19:28.437Z,-2.30
2019-04-10T02:21:58.263Z,-2.40
2019-04-10T02:24:27.725Z,-2.40
2019-04-10T02:27:00.276Z,-2.50
2019-04-10T02:29:29.804Z,-2.50
2019-04-10T02:31:59.815Z,-2.50
2019-04-10T02:34:30.689Z,-2.50
2019-04-10T02:37:00.648Z,-2.50
2019-04-10T02:39:38.209Z,-2.50
2019-04-10T02:42:02.834Z,-2.50
2019-04-10T02:44:33.114Z,-2.60
2019-04-10T02:47:04.208Z,-2.60
2019-04-10T02:49:33.971Z,-2.60
2019-04-10T02:52:04.066Z,-2.50
2019-04-10T02:54:34.127Z,-2.50
2019-04-10T02:57:05.486Z,-2.60
2019-04-10T02:59:35.319Z,-2.60
2019-04-10T03:02:06.225Z,-2.60
2019-04-10T03:04:37.211Z,-2.60
2019-04-10T03:07:07.609Z,-2.60
2019-04-10T03:09:52.813Z,-2.60
2019-04-10T03:12:10.289Z,-2.60
2019-04-10T03:14:41.580Z,-2.60
2019-04-10T03:17:12.165Z,-2.60
2019-04-10T03:19:41.745Z,-2.60
2019-04-10T03:22:12.364Z,-2.60
2019-04-10T03:24:42.392Z,-2.60
2019-04-10T03:27:12.314Z,-2.60
2019-04-10T03:29:42.238Z,-2.70
2019-04-10T03:32:34.501Z,-2.70
2019-04-10T03:35:06.794Z,-2.70
2019-04-10T03:37:36.294Z,-2.80
2019-04-10T03:40:06.965Z,-2.80
2019-04-10T03:42:37.090Z,-2.90
2019-04-10T03:45:07.535Z,-2.90
2019-04-10T03:47:37.683Z,-2.90
2019-04-10T03:50:08.663Z,-2.90
2019-04-10T03:52:38.334Z,-2.90
2019-04-10T03:55:08.406Z,-2.90
2019-04-10T03:57:38.562Z,-2.80
2019-04-10T04:00:08.331Z,-2.80
2019-04-10T04:02:38.112Z,-2.70
2019-04-10T04:05:08.595Z,-2.70
2019-04-10T04:07:38.882Z,-2.70
2019-04-10T04:10:09.467Z,-2.70
2019-04-10T04:12:39.510Z,-2.60
2019-04-10T04:15:09.514Z,-2.50
2019-04-10T04:17:40.058Z,-2.50
2019-04-10T04:20:10.795Z,-2.40
2019-04-10T04:22:41.123Z,-2.30
2019-04-10T04:25:10.953Z,-2.30
2019-04-10T04:27:40.431Z,-2.20
2019-04-10T04:30:10.794Z,-2.20
2019-04-10T04:32:40.300Z,-2.20
2019-04-10T04:35:09.776Z,-2.10
2019-04-10T04:37:39.298Z,-2.00
2019-04-10T04:40:09.032Z,-2.00
2019-04-10T04:42:38.822Z,-1.90
2019-04-10T04:45:08.726Z,-1.90
2019-04-10T04:47:39.086Z,-1.90
2019-04-10T04:50:09.770Z,-1.80
2019-04-10T04:52:39.433Z,-1.80
2019-04-10T04:55:09.995Z,-1.80
2019-04-10T04:57:40.755Z,-1.80
2019-04-10T05:00:11.149Z,-1.80
2019-04-10T05:02:40.601Z,-1.70
2019-04-10T05:05:10.895Z,-1.70
2019-04-10T05:07:40.462Z,-1.70
2019-04-10T05:10:11.179Z,-1.60
2019-04-10T05:12:40.882Z,-1.50
2019-04-10T05:15:12.919Z,-1.40
2019-04-10T05:17:42.648Z,-1.30
2019-04-10T05:20:12.607Z,-1.30
2019-04-10T05:22:42.115Z,-1.20
2019-04-10T05:25:11.904Z,-1.10
2019-04-10T05:27:41.447Z,-1.00
2019-04-10T05:30:12.833Z,-0.90
2019-04-10T05:32:45.482Z,-0.80
2019-04-10T05:35:17.582Z,-0.70
2019-04-10T05:37:47.778Z,-0.60
2019-04-10T05:40:23.876Z,-0.50
2019-04-10T05:42:53.736Z,-0.30
2019-04-10T05:45:23.498Z,-0.30
2019-04-10T05:47:53.352Z,-0.10
2019-04-10T05:50:23.519Z,0.00
2019-04-10T05:52:54.258Z,0.10
2019-04-10T05:55:24.625Z,0.20
2019-04-10T05:57:55.178Z,0.30
2019-04-10T06:00:25.329Z,0.50
2019-04-10T06:02:55.027Z,0.70
2019-04-10T06:05:27.367Z,0.80
2019-04-10T06:07:57.779Z,1.00
2019-04-10T06:10:28.409Z,1.20
2019-04-10T06:13:00.500Z,1.30
2019-04-10T06:15:35.257Z,1.50
2019-04-10T06:18:06.984Z,1.60
2019-04-10T06:20:41.774Z,1.80
2019-04-10T06:23:42.114Z,1.90
2019-04-10T06:26:28.367Z,2.10
2019-04-10T06:29:02.413Z,2.30
2019-04-10T06:31:35.270Z,2.40
2019-04-10T06:34:07.387Z,2.50
2019-04-10T06:36:37.548Z,2.60
2019-04-10T06:39:11.066Z,2.60
2019-04-10T06:41:41.192Z,2.60
2019-04-10T06:44:14.248Z,2.60
2019-04-10T06:53:41.596Z,2.60
2019-04-10T06:59:19.542Z,2.70
2019-04-10T07:02:13.126Z,2.80
2019-04-10T07:05:05.774Z,2.80
2019-04-10T07:08:16.083Z,2.80
2019-04-10T07:10:52.898Z,2.90
2019-04-10T07:13:17.614Z,2.90
2019-04-10T07:15:56.334Z,3.00
2019-04-10T07:18:51.000Z,3.10
2019-04-10T07:21:35.439Z,3.20
2019-04-10T07:24:36.958Z,3.20
2019-04-10T07:28:47.449Z,3.20
2019-04-10T08:13:57.573Z,4.70
2019-04-10T08:16:27.383Z,4.80
2019-04-10T08:18:57.241Z,4.90
2019-04-10T08:21:27.378Z,5.00
2019-04-10T08:23:58.269Z,5.00
2019-04-10T08:26:28.211Z,5.10
2019-04-10T08:28:59.265Z,5.20
2019-04-10T08:31:28.845Z,5.20
2019-04-10T08:33:59.023Z,5.30
2019-04-10T08:36:29.634Z,5.30
2019-04-10T08:38:59.261Z,5.40
2019-04-10T08:41:29.698Z,5.50
2019-04-10T08:43:59.651Z,5.50
2019-04-10T08:46:30.128Z,5.60
2019-04-10T08:49:00.207Z,5.60
2019-04-10T08:51:30.987Z,5.60
2019-04-10T08:54:00.754Z,5.60
2019-04-10T08:56:30.265Z,5.60
2019-04-10T08:58:59.665Z,5.60
2019-04-10T09:01:29.288Z,5.70
2019-04-10T09:03:59.430Z,5.80
2019-04-10T09:06:29.147Z,5.90
2019-04-10T09:08:59.349Z,5.90
2019-04-10T09:11:30.167Z,5.90
2019-04-10T09:14:01.035Z,6.00
2019-04-10T09:16:31.002Z,6.10
2019-04-10T09:19:01.377Z,6.20
2019-04-10T09:21:31.717Z,6.20
2019-04-10T09:24:02.585Z,6.30
2019-04-10T09:26:32.734Z,6.40
2019-04-10T09:29:02.896Z,6.50
2019-04-10T09:31:33.371Z,6.50
2019-04-10T09:34:03.517Z,6.60
2019-04-10T09:36:33.324Z,6.60
2019-04-10T09:39:03.982Z,6.80
2019-04-10T09:41:34.734Z,6.80
2019-04-10T09:44:04.587Z,6.90
2019-04-10T09:46:35.295Z,6.90
2019-04-10T09:49:05.550Z,7.10
2019-04-10T09:51:39.009Z,7.20
2019-04-10T09:54:08.463Z,7.50
2019-04-10T09:56:38.582Z,7.70
2019-04-10T09:59:08.193Z,8.00
2019-04-10T10:01:38.000Z,8.20
2019-04-10T10:04:07.495Z,8.30
2019-04-10T10:06:38.441Z,8.30
2019-04-10T10:09:08.796Z,8.30
2019-04-10T10:11:38.651Z,8.40
2019-04-10T10:14:08.329Z,8.60
2019-04-10T10:16:37.948Z,8.80
2019-04-10T10:19:07.917Z,9.10
2019-04-10T10:21:38.729Z,9.10
2019-04-10T10:24:08.736Z,9.20
2019-04-10T10:26:38.314Z,9.10
2019-04-10T10:29:07.814Z,9.20
2019-04-10T10:31:38.052Z,9.30
2019-04-10T10:34:07.661Z,9.50
2019-04-10T10:36:41.881Z,9.60
2019-04-10T10:39:17.267Z,9.70
2019-04-10T10:41:47.320Z,9.60
2019-04-10T10:44:17.340Z,9.70
2019-04-10T10:46:47.421Z,9.60
2019-04-10T10:49:17.974Z,9.70
2019-04-10T10:51:47.850Z,9.80
2019-04-10T10:54:17.378Z,9.80
2019-04-10T10:56:46.886Z,9.90
2019-04-10T10:59:17.517Z,9.90
2019-04-10T11:01:48.113Z,9.80
2019-04-10T11:04:19.049Z,9.80
2019-04-10T11:06:57.756Z,9.90
2019-04-10T11:09:22.202Z,9.80
2019-04-10T11:11:51.843Z,9.50
2019-04-10T11:14:21.524Z,9.30
2019-04-10T11:16:51.651Z,9.00
2019-04-10T11:19:21.494Z,8.90
2019-04-10T11:21:51.120Z,8.70
2019-04-10T11:24:25.355Z,8.50
2019-04-10T11:26:55.097Z,8.40
2019-04-10T11:29:25.167Z,8.30
2019-04-10T11:31:55.610Z,8.20
2019-04-10T11:34:26.503Z,8.20
2019-04-10T11:39:31.576Z,8.20
2019-04-10T11:41:59.811Z,8.30
2019-04-10T11:44:29.777Z,8.30
2019-04-10T11:46:59.483Z,8.20
2019-04-10T11:49:31.042Z,8.20
2019-04-10T11:52:01.800Z,8.10
2019-04-10T11:54:32.785Z,8.10
2019-04-10T11:57:06.847Z,8.10
2019-04-10T11:59:38.971Z,8.20
2019-04-10T12:02:08.904Z,8.20
2019-04-10T12:04:48.000Z,8.30
2019-04-10T12:07:25.092Z,8.30
2019-04-10T12:12:13.287Z,8.40
2019-04-10T12:14:43.693Z,8.50
2019-04-10T12:17:13.817Z,8.50
2019-04-10T12:19:44.542Z,8.60
2019-04-10T12:22:14.420Z,8.60
2019-04-10T12:24:43.995Z,8.70
2019-04-10T12:27:14.673Z,8.80
2019-04-10T12:29:46.735Z,8.90
2019-04-10T12:32:16.661Z,9.00
2019-04-10T12:34:46.540Z,9.10
2019-04-10T12:37:17.327Z,9.20
2019-04-10T12:39:47.541Z,9.20
2019-04-10T12:42:17.402Z,9.20
2019-04-10T12:44:47.194Z,9.10
2019-04-10T12:47:17.530Z,8.90
2019-04-10T12:49:47.727Z,8.80
2019-04-10T12:52:18.460Z,8.80
2019-04-10T12:54:49.041Z,8.80
2019-04-10T12:57:18.929Z,8.80
2019-04-10T12:59:49.933Z,8.80
2019-04-10T13:02:20.577Z,8.80
2019-04-10T13:04:50.385Z,8.70
2019-04-10T13:07:19.850Z,8.70
2019-04-10T13:09:50.409Z,8.70
2019-04-10T13:12:20.873Z,8.70
2019-04-10T13:14:50.781Z,8.70
2019-04-10T13:17:20.778Z,8.70
2019-04-10T13:19:51.334Z,8.80
2019-04-10T13:22:22.229Z,8.70
2019-04-10T13:24:52.096Z,8.70
2019-04-10T13:27:22.985Z,8.80
2019-04-10T13:29:52.908Z,8.80
2019-04-10T13:32:23.367Z,8.70
2019-04-10T13:34:53.395Z,8.70
2019-04-10T13:37:24.117Z,8.60
2019-04-10T13:39:53.824Z,8.60
2019-04-10T13:42:23.587Z,8.60
2019-04-10T13:44:53.041Z,8.60
2019-04-10T13:47:23.511Z,8.60
2019-04-10T13:49:54.515Z,8.50
2019-04-10T13:52:27.857Z,8.60
2019-04-10T13:55:01.053Z,8.50
2019-04-10T13:57:36.945Z,8.40
2019-04-10T14:00:19.638Z,8.30
2019-04-10T14:02:50.026Z,8.10
2019-04-10T14:05:24.090Z,8.00
2019-04-10T14:07:57.729Z,7.90
2019-04-10T14:10:29.194Z,7.80
2019-04-10T14:13:09.432Z,7.80
2019-04-10T14:15:40.008Z,7.70
2019-04-10T14:18:12.367Z,7.70
2019-04-10T14:20:45.720Z,7.60
2019-04-10T14:23:20.660Z,7.60
2019-04-10T14:26:12.052Z,7.50
2019-04-10T14:28:43.002Z,7.50
2019-04-10T14:31:38.633Z,7.50
2019-04-10T14:34:08.259Z,7.40
2019-04-10T14:36:38.131Z,7.40
2019-04-10T14:39:19.591Z,7.30
2019-04-10T14:41:46.926Z,7.30
2019-04-10T14:44:17.829Z,7.30
2019-04-10T14:46:47.390Z,7.20
2019-04-10T14:49:16.894Z,7.20
2019-04-10T14:51:46.422Z,7.10
2019-04-10T14:54:15.846Z,7.10
2019-04-10T14:56:46.400Z,7.00
2019-04-10T14:59:16.030Z,7.00
2019-04-10T15:01:46.263Z,6.90
2019-04-10T15:04:16.922Z,6.90
2019-04-10T15:06:48.005Z,6.80
2019-04-10T15:09:26.061Z,6.90
2019-04-10T15:11:55.534Z,6.80
2019-04-10T15:14:25.904Z,6.80
2019-04-10T15:17:02.857Z,6.70
2019-04-10T15:19:26.948Z,6.70
2019-04-10T15:21:56.549Z,6.50
2019-04-10T15:24:26.006Z,6.40
2019-04-10T15:26:55.624Z,6.40
2019-04-10T15:29:25.541Z,6.30
2019-04-10T15:31:55.895Z,6.20
2019-04-10T15:34:26.074Z,6.20
2019-04-10T15:36:56.416Z,6.10
2019-04-10T15:39:33.870Z,6.00
2019-04-10T15:41:57.431Z,6.00
2019-04-10T15:44:27.111Z,5.90
2019-04-10T15:47:08.685Z,5.90
2019-04-10T15:49:30.917Z,5.80
2019-04-10T15:52:01.451Z,5.80
2019-04-10T15:54:32.104Z,5.70
2019-04-10T15:57:02.681Z,5.70
2019-04-10T15:59:32.463Z,5.70
2019-04-10T16:02:01.990Z,5.60
2019-04-10T16:04:31.690Z,5.60
2019-04-10T16:07:02.103Z,5.50
2019-04-10T16:09:43.655Z,5.50
2019-04-10T16:12:10.650Z,5.50
2019-04-10T16:14:40.288Z,5.40
2019-04-10T16:17:52.396Z,5.40
2019-04-10T16:20:33.707Z,5.40
2019-04-10T16:23:27.382Z,5.40
2019-04-10T16:25:56.484Z,5.30
2019-04-10T16:28:27.044Z,5.30
2019-04-10T16:30:57.187Z,5.20
2019-04-10T16:33:50.511Z,5.20
2019-04-10T16:36:50.012Z,5.10
2019-04-10T16:50:28.197Z,5.10
2019-04-10T16:53:05.451Z,5.00
2019-04-10T17:19:48.394Z,4.60
2019-04-10T17:49:21.314Z,4.00
2019-04-10T17:53:11.428Z,4.00
2019-04-10T18:04:37.956Z,3.80
2019-04-10T18:11:50.257Z,3.70
2019-04-10T18:15:08.187Z,3.60
2019-04-10T18:18:45.746Z,3.60
2019-04-10T19:04:04.412Z,3.20
2019-04-10T19:07:30.166Z,3.20
2019-04-10T19:16:51.395Z,3.20
2019-04-10T19:19:24.612Z,3.10
2019-04-10T19:22:15.835Z,3.20
2019-04-10T19:25:36.623Z,3.20
2019-04-10T19:28:27.950Z,3.10
2019-04-10T19:31:19.488Z,3.10
2019-04-10T19:33:59.517Z,3.10
2019-04-10T19:36:29.975Z,3.10
2019-04-10T19:39:24.463Z,3.00
2019-04-10T19:42:01.195Z,3.00
2019-04-10T19:56:53.055Z,3.00
2019-04-10T20:00:08.329Z,2.90
2019-04-10T20:23:43.830Z,2.80
2019-04-10T20:26:51.728Z,2.80
2019-04-10T20:33:49.581Z,2.80
2019-04-10T20:44:36.574Z,2.80
2019-04-10T20:47:39.843Z,2.70
2019-04-10T21:05:14.785Z,2.60
2019-04-10T21:08:09.742Z,2.60
2019-04-10T23:21:30.708Z,2.40
